Terminal Aerodrome Forecast
Issued by NWS Buffalo, NY

Home | Current Version | Previous Version | Text Only | Print | Product List | Glossary On
Versions: 1 2 3 4 5 6 7 8 9 10 11 12 13 14 15 16 17 18 19 20 21 22 23 24 25 26 27
000
FTUS41 KBUF 252109 AAA
TAFBUF
TAF AMD
KBUF 252109Z 2521/2618 07012KT P6SM OVC012
     FM252300 08012KT P6SM BKN012 OVC035
     FM260700 09012KT P6SM VCSH OVC012
     FM261100 10010G17KT P6SM VCSH OVC025
     FM261300 12009KT P6SM OVC035=

USA.gov is the U.S. government's official web portal to all federal, state and local government web resources and services.